createdAt,value
2019-06-01T00:01:48.785Z,101584.00
2019-06-01T00:04:18.813Z,101592.00
2019-06-01T00:06:48.961Z,101591.00
2019-06-01T00:09:21.669Z,101592.00
2019-06-01T00:11:51.406Z,101591.00
2019-06-01T00:14:21.180Z,101588.00
2019-06-01T00:16:50.949Z,101599.00
2019-06-01T00:19:20.670Z,101590.00
2019-06-01T00:21:50.421Z,101601.00
2019-06-01T00:24:20.781Z,101591.00
2019-06-01T00:26:50.455Z,101590.00
2019-06-01T00:29:20.543Z,101589.00
2019-06-01T00:31:51.987Z,101590.00
2019-06-01T00:34:21.865Z,101587.00
2019-06-01T00:36:52.033Z,101587.00
2019-06-01T00:39:21.915Z,101578.00
2019-06-01T00:41:52.463Z,101581.00
2019-06-01T00:44:22.330Z,101574.00
2019-06-01T00:46:52.797Z,101570.00
2019-06-01T00:49:22.661Z,101585.00
2019-06-01T00:51:53.674Z,101578.00
2019-06-01T00:54:23.498Z,101582.00
2019-06-01T00:56:53.878Z,101581.00
2019-06-01T00:59:23.957Z,101582.00
2019-06-01T01:01:54.238Z,101585.00
2019-06-01T01:04:24.084Z,101591.00
2019-06-01T01:06:54.808Z,101584.00
2019-06-01T01:09:24.558Z,101574.00
2019-06-01T01:11:55.316Z,101587.00
2019-06-01T01:14:25.072Z,101592.00
2019-06-01T01:16:55.786Z,101583.00
2019-06-01T01:19:25.534Z,101587.00
2019-06-01T01:21:56.458Z,101578.00
2019-06-01T01:24:26.263Z,101586.00
2019-06-01T01:26:56.777Z,101582.00
2019-06-01T01:29:26.782Z,101578.00
2019-06-01T01:31:57.369Z,101576.00
2019-06-01T01:34:27.160Z,101585.00
2019-06-01T01:36:58.092Z,101574.00
2019-06-01T01:39:48.037Z,101574.00
2019-06-01T01:42:17.820Z,101570.00
2019-06-01T01:44:48.387Z,101576.00
2019-06-01T01:47:18.229Z,101574.00
2019-06-01T01:49:47.909Z,101574.00
2019-06-01T01:52:17.624Z,101576.00
2019-06-01T01:54:47.418Z,101573.00
2019-06-01T01:57:17.090Z,101576.00
2019-06-01T01:59:46.817Z,101574.00
2019-06-01T02:02:16.569Z,101572.00
2019-06-01T02:04:46.327Z,101569.00
2019-06-01T02:07:16.057Z,101561.00
2019-06-01T02:09:45.804Z,101567.00
2019-06-01T02:12:15.569Z,101558.00
2019-06-01T02:14:46.663Z,101564.00
2019-06-01T02:17:16.426Z,101559.00
2019-06-01T02:19:46.230Z,101550.00
2019-06-01T02:22:28.326Z,101552.00
2019-06-01T02:24:58.286Z,101546.00
2019-06-01T02:27:28.034Z,101550.00
2019-06-01T02:29:57.754Z,101541.00
2019-06-01T02:32:27.468Z,101544.00
2019-06-01T02:34:58.570Z,101535.00
2019-06-01T02:37:28.629Z,101539.00
2019-06-01T02:39:58.516Z,101542.00
2019-06-01T02:42:28.191Z,101530.00
2019-06-01T02:44:59.190Z,101531.00
2019-06-01T02:47:28.937Z,101537.00
2019-06-01T02:49:59.437Z,101538.00
2019-06-01T02:52:29.298Z,101536.00
2019-06-01T02:54:59.641Z,101530.00
2019-06-01T02:57:29.414Z,101535.00
2019-06-01T03:00:00.328Z,101529.00
2019-06-01T03:02:30.678Z,101538.00
2019-06-01T03:05:01.185Z,101528.00
2019-06-01T03:07:33.315Z,101532.00
2019-06-01T03:10:05.420Z,101534.00
2019-06-01T03:12:43.325Z,101531.00
2019-06-01T03:15:14.512Z,101532.00
2019-06-01T03:17:49.667Z,101534.00
2019-06-01T03:20:19.804Z,101541.00
2019-06-01T03:22:54.757Z,101536.00
2019-06-01T03:25:28.774Z,101531.00
2019-06-01T03:28:02.140Z,101533.00
2019-06-01T03:30:45.504Z,101522.00
2019-06-01T03:33:15.275Z,101521.00
2019-06-01T03:35:45.061Z,101522.00
2019-06-01T03:38:14.889Z,101515.00
2019-06-01T03:40:44.711Z,101522.00
2019-06-01T03:43:15.060Z,101520.00
2019-06-01T03:45:44.802Z,101522.00
2019-06-01T03:48:14.515Z,101526.00
2019-06-01T03:50:44.242Z,101532.00
2019-06-01T03:53:13.979Z,101531.00
2019-06-01T03:55:43.693Z,101537.00
2019-06-01T03:58:13.503Z,101535.00
2019-06-01T04:00:43.213Z,101527.00
2019-06-01T04:03:12.965Z,101539.00
2019-06-01T04:05:42.887Z,101532.00
2019-06-01T04:08:12.563Z,101534.00
2019-06-01T04:10:42.564Z,101539.00
2019-06-01T04:13:12.305Z,101532.00
2019-06-01T04:15:42.011Z,101545.00
2019-06-01T04:18:14.006Z,101541.00
2019-06-01T04:20:43.324Z,101537.00
2019-06-01T04:23:13.350Z,101541.00
2019-06-01T04:25:43.027Z,101542.00
2019-06-01T04:28:13.065Z,101546.00
2019-06-01T04:30:42.813Z,101546.00
2019-06-01T04:33:13.283Z,101555.00
2019-06-01T04:35:43.060Z,101538.00
2019-06-01T04:38:13.393Z,101555.00
2019-06-01T04:40:43.631Z,101540.00
2019-06-01T04:43:14.173Z,101547.00
2019-06-01T04:45:43.906Z,101551.00
2019-06-01T04:48:14.698Z,101558.00
2019-06-01T04:50:44.743Z,101564.00
2019-06-01T04:53:15.137Z,101563.00
2019-06-01T04:55:44.946Z,101565.00
2019-06-01T04:58:15.121Z,101554.00
2019-06-01T05:00:44.986Z,101564.00
2019-06-01T05:03:15.347Z,101563.00
2019-06-01T05:05:45.213Z,101561.00
2019-06-01T05:08:15.643Z,101566.00
2019-06-01T05:10:45.425Z,101574.00
2019-06-01T05:13:15.698Z,101571.00
2019-06-01T05:15:45.566Z,101571.00
2019-06-01T05:18:18.343Z,101579.00
2019-06-01T05:20:46.699Z,101572.00
2019-06-01T05:23:16.957Z,101575.00
2019-06-01T05:25:46.718Z,101571.00
2019-06-01T05:28:17.475Z,101577.00
2019-06-01T05:30:47.383Z,101575.00
2019-06-01T05:33:30.981Z,101581.00
2019-06-01T05:35:48.511Z,101580.00
2019-06-01T05:38:18.623Z,101575.00
2019-06-01T05:40:48.397Z,101578.00
2019-06-01T05:43:21.109Z,101576.00
2019-06-01T05:45:49.555Z,101580.00
2019-06-01T05:48:24.816Z,101580.00
2019-06-01T05:50:50.747Z,101579.00
2019-06-01T05:53:20.525Z,101588.00
2019-06-01T05:55:50.348Z,101579.00
2019-06-01T05:58:21.638Z,101593.00
2019-06-01T06:00:51.529Z,101577.00
2019-06-01T06:03:32.003Z,101581.00
2019-06-01T06:05:52.882Z,101587.00
2019-06-01T06:08:22.604Z,101590.00
2019-06-01T06:10:52.320Z,101589.00
2019-06-01T06:13:22.316Z,101582.00
2019-06-01T06:15:52.001Z,101581.00
2019-06-01T06:18:22.013Z,101591.00
2019-06-01T06:20:51.682Z,101593.00
2019-06-01T06:23:40.771Z,101591.00
2019-06-01T06:26:11.534Z,101594.00
2019-06-01T06:28:41.277Z,101583.00
2019-06-01T06:31:11.036Z,101583.00
2019-06-01T06:33:55.544Z,101591.00
2019-06-01T06:36:13.489Z,101585.00
2019-06-01T06:38:43.414Z,101589.00
2019-06-01T06:41:13.974Z,101591.00
2019-06-01T06:43:43.880Z,101590.00
2019-06-01T06:46:14.519Z,101592.00
2019-06-01T06:48:44.299Z,101602.00
2019-06-01T06:51:15.131Z,101601.00
2019-06-01T06:53:44.987Z,101592.00
2019-06-01T06:56:15.626Z,101601.00
2019-06-01T06:58:45.415Z,101588.00
2019-06-01T07:01:15.104Z,101595.00
2019-06-01T07:03:45.112Z,101586.00
2019-06-01T07:06:14.841Z,101586.00
2019-06-01T07:08:44.830Z,101587.00
2019-06-01T07:11:14.564Z,101584.00
2019-06-01T07:13:44.266Z,101580.00
2019-06-01T07:16:14.031Z,101588.00
2019-06-01T07:18:43.736Z,101586.00
2019-06-01T07:21:13.410Z,101590.00
2019-06-01T07:23:43.128Z,101580.00
2019-06-01T07:26:12.871Z,101588.00
2019-06-01T07:28:44.563Z,101595.00
2019-06-01T07:31:14.262Z,101582.00
2019-06-01T07:33:44.112Z,101575.00
2019-06-01T07:36:14.056Z,101578.00
2019-06-01T07:38:43.834Z,101581.00
2019-06-01T07:41:13.863Z,101586.00
2019-06-01T07:43:43.543Z,101590.00
2019-06-01T07:46:13.248Z,101586.00
2019-06-01T07:48:42.962Z,101587.00
2019-06-01T07:51:12.697Z,101590.00
2019-06-01T07:53:42.375Z,101594.00
2019-06-01T07:56:12.082Z,101592.00
2019-06-01T07:58:41.824Z,101597.00
2019-06-01T08:01:11.525Z,101597.00
2019-06-01T08:03:41.253Z,101591.00
2019-06-01T08:06:10.959Z,101606.00
2019-06-01T08:08:40.667Z,101601.00
2019-06-01T08:11:10.413Z,101596.00
2019-06-01T08:13:40.441Z,101599.00
2019-06-01T08:16:10.243Z,101599.00
2019-06-01T08:18:40.262Z,101598.00
2019-06-01T08:21:09.971Z,101600.00
2019-06-01T08:23:39.939Z,101596.00
2019-06-01T08:26:09.709Z,101591.00
2019-06-01T08:28:39.378Z,101596.00
2019-06-01T08:31:09.165Z,101593.00
2019-06-01T08:33:38.899Z,101594.00
2019-06-01T08:36:10.225Z,101585.00
2019-06-01T08:38:40.170Z,101580.00
2019-06-01T08:41:09.894Z,101579.00
2019-06-01T08:43:39.561Z,101575.00
2019-06-01T08:46:09.276Z,101569.00
2019-06-01T08:48:38.995Z,101569.00
2019-06-01T08:51:08.700Z,101567.00
2019-06-01T08:53:38.393Z,101575.00
2019-06-01T08:56:10.082Z,101574.00
2019-06-01T08:58:39.937Z,101559.00
2019-06-01T09:01:09.888Z,101572.00
2019-06-01T09:03:46.260Z,101566.00
2019-06-01T09:06:12.456Z,101556.00
2019-06-01T09:08:42.190Z,101553.00
2019-06-01T09:11:11.891Z,101550.00
2019-06-01T09:13:41.612Z,101544.00
2019-06-01T09:16:14.208Z,101550.00
2019-06-01T09:18:44.033Z,101549.00
2019-06-01T09:21:13.729Z,101553.00
2019-06-01T09:23:43.448Z,101544.00
2019-06-01T09:26:13.241Z,101548.00
2019-06-01T09:28:42.989Z,101543.00
2019-06-01T09:31:12.732Z,101554.00
2019-06-01T09:33:42.424Z,101548.00
2019-06-01T09:36:12.166Z,101552.00
2019-06-01T09:38:42.123Z,101561.00
2019-06-01T09:41:11.864Z,101555.00
2019-06-01T09:43:41.917Z,101550.00
2019-06-01T09:46:11.658Z,101548.00
2019-06-01T09:48:41.363Z,101548.00
2019-06-01T09:51:11.138Z,101551.00
2019-06-01T09:53:40.865Z,101550.00
2019-06-01T09:56:10.593Z,101551.00
2019-06-01T09:58:40.426Z,101545.00
2019-06-01T10:01:10.463Z,101550.00
2019-06-01T10:03:40.304Z,101548.00
2019-06-01T10:06:13.843Z,101541.00
2019-06-01T10:08:42.402Z,101546.00
2019-06-01T10:11:12.171Z,101546.00
2019-06-01T10:13:42.631Z,101549.00
2019-06-01T10:16:12.351Z,101540.00
2019-06-01T10:18:43.117Z,101542.00
2019-06-01T10:21:12.957Z,101534.00
2019-06-01T10:23:42.905Z,101542.00
2019-06-01T10:26:12.691Z,101529.00
2019-06-01T10:28:42.415Z,101523.00
2019-06-01T10:31:12.108Z,101523.00
2019-06-01T10:33:43.202Z,101523.00
2019-06-01T10:36:20.405Z,101511.00
2019-06-01T10:38:44.975Z,101518.00
2019-06-01T10:41:14.914Z,101522.00
2019-06-01T10:43:44.772Z,101510.00
2019-06-01T10:46:14.463Z,101501.00
2019-06-01T10:48:44.137Z,101508.00
2019-06-01T10:51:13.804Z,101496.00
2019-06-01T10:53:43.870Z,101505.00
2019-06-01T10:56:13.523Z,101493.00
2019-06-01T10:58:56.723Z,101488.00
2019-06-01T11:01:14.627Z,101484.00
2019-06-01T11:03:44.330Z,101493.00
2019-06-01T11:06:13.996Z,101489.00
2019-06-01T11:08:43.683Z,101505.00
2019-06-01T11:11:13.483Z,101494.00
2019-06-01T11:13:43.356Z,101498.00
2019-06-01T11:16:13.061Z,101488.00
2019-06-01T11:18:43.590Z,101488.00
2019-06-01T11:21:13.382Z,101488.00
2019-06-01T11:23:46.120Z,101478.00
2019-06-01T11:26:14.603Z,101486.00
2019-06-01T11:28:44.484Z,101475.00
2019-06-01T11:31:14.449Z,101477.00
2019-06-01T11:33:44.353Z,101476.00
2019-06-01T11:36:14.408Z,101475.00
2019-06-01T11:38:44.835Z,101469.00
2019-06-01T11:41:18.291Z,101473.00
2019-06-01T11:43:46.299Z,101465.00
2019-06-01T11:46:15.904Z,101459.00
2019-06-01T11:48:45.632Z,101463.00
2019-06-01T11:51:15.268Z,101472.00
2019-06-01T11:53:45.685Z,101471.00
2019-06-01T11:56:15.556Z,101460.00
2019-06-01T11:58:45.612Z,101468.00
2019-06-01T12:01:15.419Z,101462.00
2019-06-01T12:03:46.189Z,101456.00
2019-06-01T12:06:16.053Z,101452.00
2019-06-01T12:08:46.352Z,101458.00
2019-06-01T12:11:16.142Z,101465.00
2019-06-01T12:13:46.565Z,101454.00
2019-06-01T12:16:16.298Z,101445.00
2019-06-01T12:18:46.889Z,101452.00
2019-06-01T12:21:17.145Z,101453.00
2019-06-01T12:23:47.589Z,101446.00
2019-06-01T12:26:17.300Z,101450.00
2019-06-01T12:28:47.892Z,101439.00
2019-06-01T12:31:17.649Z,101431.00
2019-06-01T12:33:48.685Z,101431.00
2019-06-01T12:36:39.302Z,101447.00
2019-06-01T12:39:09.799Z,101413.00
2019-06-01T12:41:39.859Z,101429.00
2019-06-01T12:44:12.969Z,101424.00
2019-06-01T12:46:43.806Z,101427.00
2019-06-01T12:49:13.713Z,101420.00
2019-06-01T12:51:44.574Z,101413.00
2019-06-01T12:54:14.504Z,101407.00
2019-06-01T12:56:44.773Z,101408.00
2019-06-01T12:59:14.563Z,101405.00
2019-06-01T13:01:45.156Z,101411.00
2019-06-01T13:04:14.995Z,101411.00
2019-06-01T13:06:48.910Z,101405.00
2019-06-01T13:09:16.265Z,101406.00
2019-06-01T13:11:47.267Z,101383.00
2019-06-01T13:14:17.040Z,101395.00
2019-06-01T13:16:57.080Z,101397.00
2019-06-01T13:19:18.248Z,101390.00
2019-06-01T13:21:47.963Z,101393.00
2019-06-01T13:24:17.667Z,101391.00
2019-06-01T13:26:47.871Z,101392.00
2019-06-01T13:29:17.659Z,101382.00
2019-06-01T13:31:48.215Z,101390.00
2019-06-01T13:34:17.937Z,101371.00
2019-06-01T13:36:48.956Z,101373.00
2019-06-01T13:39:19.394Z,101376.00
2019-06-01T13:41:49.586Z,101364.00
2019-06-01T13:44:19.547Z,101364.00
2019-06-01T13:46:49.537Z,101365.00
2019-06-01T13:49:19.254Z,101361.00
2019-06-01T13:51:50.279Z,101352.00
2019-06-01T13:54:20.473Z,101351.00
2019-06-01T13:56:50.983Z,101352.00
2019-06-01T13:59:20.814Z,101357.00
2019-06-01T14:01:51.401Z,101349.00
2019-06-01T14:04:21.250Z,101347.00
2019-06-01T14:06:51.214Z,101358.00
2019-06-01T14:09:22.124Z,101348.00
2019-06-01T14:11:53.417Z,101341.00
2019-06-01T14:14:23.413Z,101341.00
2019-06-01T14:16:53.618Z,101341.00
2019-06-01T14:19:23.425Z,101337.00
2019-06-01T14:21:54.189Z,101337.00
2019-06-01T14:24:23.975Z,101330.00
2019-06-01T14:26:54.397Z,101333.00
2019-06-01T14:29:24.208Z,101324.00
2019-06-01T14:31:55.418Z,101332.00
2019-06-01T14:34:25.493Z,101334.00
2019-06-01T14:36:55.195Z,101335.00
2019-06-01T14:39:25.067Z,101344.00
2019-06-01T14:41:55.533Z,101340.00
2019-06-01T14:44:25.283Z,101333.00
2019-06-01T14:47:05.039Z,101340.00
2019-06-01T14:49:26.406Z,101330.00
2019-06-01T14:51:56.098Z,101337.00
2019-06-01T14:54:25.806Z,101333.00
2019-06-01T14:56:55.888Z,101336.00
2019-06-01T14:59:25.628Z,101338.00
2019-06-01T15:01:56.261Z,101329.00
2019-06-01T15:04:26.001Z,101332.00
2019-06-01T15:06:56.472Z,101322.00
2019-06-01T15:09:26.345Z,101322.00
2019-06-01T15:11:56.696Z,101312.00
2019-06-01T15:14:26.471Z,101317.00
2019-06-01T15:16:56.318Z,101314.00
2019-06-01T15:19:26.134Z,101312.00
2019-06-01T15:21:56.198Z,101303.00
2019-06-01T15:24:26.036Z,101309.00
2019-06-01T15:26:56.844Z,101304.00
2019-06-01T15:29:26.656Z,101305.00
2019-06-01T15:31:56.324Z,101310.00
2019-06-01T15:34:26.012Z,101315.00
2019-06-01T15:36:55.784Z,101314.00
2019-06-01T15:39:25.737Z,101306.00
2019-06-01T15:41:57.022Z,101309.00
2019-06-01T15:44:26.764Z,101294.00
2019-06-01T15:46:59.864Z,101309.00
2019-06-01T15:49:29.787Z,101305.00
2019-06-01T15:51:59.896Z,101306.00
2019-06-01T15:54:29.637Z,101295.00
2019-06-01T15:57:00.614Z,101309.00
2019-06-01T15:59:30.385Z,101297.00
2019-06-01T16:02:01.306Z,101293.00
2019-06-01T16:04:31.188Z,101297.00
2019-06-01T16:07:01.448Z,101285.00
2019-06-01T16:09:42.152Z,101291.00
2019-06-01T16:12:03.782Z,101293.00
2019-06-01T16:14:33.478Z,101288.00
2019-06-01T16:17:04.623Z,101293.00
2019-06-01T16:19:35.183Z,101291.00
2019-06-01T16:22:05.053Z,101285.00
2019-06-01T16:24:34.795Z,101279.00
2019-06-01T16:27:04.873Z,101282.00
2019-06-01T16:29:34.658Z,101290.00
2019-06-01T16:32:05.048Z,101279.00
2019-06-01T16:34:34.929Z,101267.00
2019-06-01T16:37:23.913Z,101278.00
2019-06-01T16:40:02.126Z,101277.00
2019-06-01T16:42:25.130Z,101267.00
2019-06-01T16:44:55.340Z,101266.00
2019-06-01T16:47:25.019Z,101274.00
2019-06-01T16:49:55.749Z,101278.00
2019-06-01T16:52:25.435Z,101274.00
2019-06-01T16:54:56.210Z,101276.00
2019-06-01T16:57:25.903Z,101275.00
2019-06-01T16:59:56.321Z,101275.00
2019-06-01T17:02:26.291Z,101275.00
2019-06-01T17:04:56.523Z,101275.00
2019-06-01T17:07:26.256Z,101277.00
2019-06-01T17:09:56.635Z,101279.00
2019-06-01T17:12:26.316Z,101271.00
2019-06-01T17:14:56.809Z,101269.00
2019-06-01T17:17:26.532Z,101276.00
2019-06-01T17:19:56.947Z,101274.00
2019-06-01T17:22:26.607Z,101271.00
2019-06-01T17:24:57.580Z,101275.00
2019-06-01T17:27:27.362Z,101268.00
2019-06-01T17:29:58.078Z,101271.00
2019-06-01T17:32:27.896Z,101268.00
2019-06-01T17:34:58.583Z,101273.00
2019-06-01T17:37:28.232Z,101271.00
2019-06-01T17:39:57.875Z,101275.00
2019-06-01T17:42:28.355Z,101269.00
2019-06-01T17:44:58.386Z,101270.00
2019-06-01T17:47:28.079Z,101263.00
2019-06-01T17:49:57.811Z,101261.00
2019-06-01T17:52:27.476Z,101262.00
2019-06-01T17:54:57.177Z,101254.00
2019-06-01T17:57:26.876Z,101257.00
2019-06-01T17:59:56.842Z,101250.00
2019-06-01T18:02:26.529Z,101258.00
2019-06-01T18:04:56.215Z,101252.00
2019-06-01T18:07:45.224Z,101247.00
2019-06-01T18:10:16.057Z,101248.00
2019-06-01T18:12:46.082Z,101249.00
2019-06-01T18:15:16.151Z,101242.00
2019-06-01T18:17:45.868Z,101245.00
2019-06-01T18:20:16.609Z,101252.00
2019-06-01T18:22:46.719Z,101245.00
2019-06-01T18:25:22.716Z,101244.00
2019-06-01T18:27:52.513Z,101250.00
2019-06-01T18:30:23.140Z,101251.00
2019-06-01T18:32:54.474Z,101243.00
2019-06-01T18:35:24.380Z,101245.00
2019-06-01T18:37:54.349Z,101244.00
2019-06-01T18:40:26.081Z,101249.00
2019-06-01T18:43:01.913Z,101242.00
2019-06-01T18:45:32.415Z,101245.00
2019-06-01T18:48:03.625Z,101238.00
2019-06-01T18:50:33.515Z,101238.00
2019-06-01T18:53:03.892Z,101245.00
2019-06-01T18:55:35.814Z,101247.00
2019-06-01T18:58:06.506Z,101244.00
2019-06-01T19:00:39.589Z,101247.00
2019-06-01T19:03:08.993Z,101251.00
2019-06-01T19:05:39.241Z,101251.00
2019-06-01T19:08:09.379Z,101249.00
2019-06-01T19:10:39.429Z,101247.00
2019-06-01T19:13:09.571Z,101251.00
2019-06-01T19:15:39.660Z,101253.00
2019-06-01T19:18:10.488Z,101251.00
2019-06-01T19:20:40.253Z,101251.00
2019-06-01T19:23:10.771Z,101252.00
2019-06-01T19:25:40.578Z,101261.00
2019-06-01T19:28:11.024Z,101266.00
2019-06-01T19:30:42.912Z,101270.00
2019-06-01T19:33:15.367Z,101265.00
2019-06-01T19:35:44.194Z,101273.00
2019-06-01T19:38:15.330Z,101270.00
2019-06-01T19:40:45.266Z,101272.00
2019-06-01T19:43:15.655Z,101276.00
2019-06-01T19:45:45.668Z,101273.00
2019-06-01T19:48:16.540Z,101279.00
2019-06-01T19:50:46.408Z,101274.00
2019-06-01T19:53:16.788Z,101279.00
2019-06-01T19:55:46.615Z,101278.00
2019-06-01T19:58:17.253Z,101280.00
2019-06-01T20:00:48.480Z,101276.00
2019-06-01T20:03:21.876Z,101283.00
2019-06-01T20:05:49.580Z,101288.00
2019-06-01T20:08:19.531Z,101285.00
2019-06-01T20:10:49.211Z,101284.00
2019-06-01T20:13:19.324Z,101282.00
2019-06-01T20:15:48.988Z,101288.00
2019-06-01T20:18:19.146Z,101283.00
2019-06-01T20:20:49.089Z,101283.00
2019-06-01T20:23:19.521Z,101286.00
2019-06-01T20:25:49.423Z,101290.00
2019-06-01T20:28:19.735Z,101288.00
2019-06-01T20:30:49.622Z,101285.00
2019-06-01T20:33:20.484Z,101286.00
2019-06-01T20:35:50.781Z,101288.00
2019-06-01T20:38:20.696Z,101285.00
2019-06-01T20:40:50.531Z,101284.00
2019-06-01T20:43:20.820Z,101281.00
2019-06-01T20:45:50.644Z,101283.00
2019-06-01T20:48:20.948Z,101277.00
2019-06-01T20:50:51.062Z,101275.00
2019-06-01T20:53:21.125Z,101275.00
2019-06-01T20:55:50.885Z,101273.00
2019-06-01T20:58:22.064Z,101272.00
2019-06-01T21:00:51.985Z,101275.00
2019-06-01T21:03:22.001Z,101267.00
2019-06-01T21:05:51.720Z,101274.00
2019-06-01T21:08:22.404Z,101277.00
2019-06-01T21:10:52.423Z,101267.00
2019-06-01T21:13:22.331Z,101271.00
2019-06-01T21:15:52.133Z,101273.00
2019-06-01T21:18:22.730Z,101270.00
2019-06-01T21:20:52.622Z,101275.00
2019-06-01T21:23:22.934Z,101268.00
2019-06-01T21:25:52.846Z,101264.00
2019-06-01T21:28:23.836Z,101267.00
2019-06-01T21:30:54.050Z,101266.00
2019-06-01T21:33:28.046Z,101264.00
2019-06-01T21:36:15.248Z,101263.00
2019-06-01T21:38:45.293Z,101263.00
2019-06-01T21:41:15.490Z,101263.00
2019-06-01T21:43:45.308Z,101268.00
2019-06-01T21:46:15.561Z,101265.00
2019-06-01T21:48:45.326Z,101272.00
2019-06-01T21:51:15.708Z,101267.00
2019-06-01T21:53:45.403Z,101270.00
2019-06-01T21:56:18.429Z,101261.00
2019-06-01T21:58:46.575Z,101269.00
2019-06-01T22:01:16.450Z,101266.00
2019-06-01T22:03:46.484Z,101270.00
2019-06-01T22:06:17.043Z,101279.00
2019-06-01T22:08:52.742Z,101268.00
2019-06-01T22:11:19.389Z,101271.00
2019-06-01T22:13:49.125Z,101281.00
2019-06-01T22:16:19.506Z,101270.00
2019-06-01T22:18:49.280Z,101279.00
2019-06-01T22:21:19.680Z,101282.00
2019-06-01T22:23:49.425Z,101282.00
2019-06-01T22:26:19.862Z,101271.00
2019-06-01T22:28:49.884Z,101286.00
2019-06-01T22:31:20.185Z,101277.00
2019-06-01T22:33:50.066Z,101278.00
2019-06-01T22:36:20.499Z,101272.00
2019-06-01T22:38:50.280Z,101284.00
2019-06-01T22:41:20.050Z,101276.00
2019-06-01T22:43:49.856Z,101276.00
2019-06-01T22:46:20.368Z,101278.00
2019-06-01T22:48:50.149Z,101284.00
2019-06-01T22:51:20.799Z,101279.00
2019-06-01T22:53:50.551Z,101284.00
2019-06-01T22:56:21.165Z,101282.00
2019-06-01T22:58:51.301Z,101280.00
2019-06-01T23:01:21.148Z,101281.00
2019-06-01T23:03:50.879Z,101277.00
2019-06-01T23:06:20.967Z,101280.00
2019-06-01T23:08:50.663Z,101278.00
2019-06-01T23:11:21.289Z,101280.00
2019-06-01T23:13:53.651Z,101286.00
2019-06-01T23:16:23.646Z,101283.00
2019-06-01T23:18:53.401Z,101286.00
2019-06-01T23:21:23.791Z,101283.00
2019-06-01T23:23:53.581Z,101291.00
2019-06-01T23:26:24.132Z,101301.00
2019-06-01T23:28:54.147Z,101291.00
2019-06-01T23:31:24.300Z,101289.00
2019-06-01T23:33:54.313Z,101290.00
2019-06-01T23:36:24.497Z,101287.00
2019-06-01T23:38:54.322Z,101288.00
2019-06-01T23:41:24.496Z,101290.00
2019-06-01T23:44:10.466Z,101295.00
2019-06-01T23:46:26.888Z,101297.00
2019-06-01T23:48:56.941Z,101293.00
2019-06-01T23:51:27.422Z,101291.00
2019-06-01T23:53:57.367Z,101288.00
2019-06-01T23:56:27.754Z,101288.00
2019-06-01T23:58:57.721Z,101289.00
